Time;durP1;ratioP1;P1;durP2;ratioP2;P2;SDS_P1;SDS_P2;PMS_P1;PMS_P2;Temp;Humidity;BMP_temperature;BMP_pressure;BME280_temperature;BME280_humidity;BME280_pressure;Samples;Min_cycle;Max_cycle;Signal;HPM_P1;HPM_P2
2024/04/11 00:02:11;;;;;;;5.85;1.50;;;;;;;-146.27;52.47;46734.84;5457876;26;19994;-68
2024/04/11 00:04:36;;;;;;;3.85;1.55;;;;;;;-146.27;52.11;46706.97;5455310;26;20001;-67
2024/04/11 00:07:02;;;;;;;4.20;0.90;;;;;;;-146.27;52.84;46754.75;5465456;26;19998;-68
2024/04/11 00:09:27;;;;;;;7.95;1.42;;;;;;;-146.27;53.27;46744.81;5470017;26;19999;-68
2024/04/11 00:11:53;;;;;;;7.03;1.35;;;;;;;-146.27;52.79;46693.03;5462440;26;20002;-68
2024/04/11 00:14:18;;;;;;;3.67;1.13;;;;;;;-146.27;53.51;46730.88;5455909;26;20007;-67
2024/04/11 00:16:44;;;;;;;7.65;1.40;;;;;;;-146.27;53.15;46710.94;5462814;26;19995;-67
2024/04/11 00:19:09;;;;;;;14.75;1.75;;;;;;;-146.27;53.23;46742.81;5471301;26;20017;-67
2024/04/11 00:21:35;;;;;;;4.72;1.00;;;;;;;-146.27;53.01;46708.97;5470330;26;20007;-67
2024/04/11 00:24:00;;;;;;;4.88;1.23;;;;;;;-146.27;53.66;46714.94;5458134;26;20018;-67
2024/04/11 00:26:26;;;;;;;9.18;1.42;;;;;;;-146.27;53.34;46734.84;5454332;26;20009;-65
2024/04/11 00:28:53;;;;;;;8.88;1.40;;;;;;;-146.27;54.02;46724.88;5471241;26;20471;-67
2024/04/11 00:31:18;;;;;;;6.53;1.40;;;;;;;-146.27;54.05;46703.00;5458964;26;20010;-67
2024/04/11 00:33:54;;;;;;;15.77;1.52;;;;;;;-146.27;54.18;46706.97;5467229;26;19999;-66
2024/04/11 00:36:24;;;;;;;9.57;1.10;;;;;;;-146.27;54.68;46708.97;5466917;26;20005;-67
2024/04/11 00:38:53;;;;;;;4.93;1.50;;;;;;;-146.27;54.09;46659.19;5474978;26;20010;-67
2024/04/11 00:41:19;;;;;;;5.00;1.17;;;;;;;-146.27;54.22;46657.19;5460182;26;20394;-67
2024/04/11 00:43:45;;;;;;;6.88;1.20;;;;;;;-146.27;55.10;46687.06;5457991;26;19995;-68
2024/04/11 00:46:11;;;;;;;6.53;1.38;;;;;;;-146.27;54.65;46679.09;5465744;26;20054;-67
2024/04/11 00:48:38;;;;;;;4.00;1.30;;;;;;;-146.27;54.83;46677.09;5461430;26;20009;-67
2024/04/11 00:51:07;;;;;;;6.18;1.20;;;;;;;-146.27;54.32;46669.16;5477241;26;20371;-67
2024/04/11 00:53:33;;;;;;;4.90;1.40;;;;;;;-146.27;55.11;46667.16;5457998;26;20610;-67
2024/04/11 00:55:58;;;;;;;4.03;1.33;;;;;;;-146.27;54.64;46663.16;5472154;26;20006;-67
2024/04/11 00:58:25;;;;;;;6.50;1.38;;;;;;;-146.27;55.53;46665.16;5460323;26;19998;-67
2024/04/11 01:00:52;;;;;;;5.93;1.60;;;;;;;-146.27;55.87;46651.22;5459837;26;20068;-67
2024/04/11 01:03:18;;;;;;;7.13;1.90;;;;;;;-146.27;56.73;46671.13;5466906;26;19998;-68
2024/04/11 01:05:43;;;;;;;9.27;1.83;;;;;;;-146.27;55.66;46671.13;5463405;26;20027;-67
2024/04/11 01:08:09;;;;;;;6.18;2.20;;;;;;;-146.27;56.04;46659.19;5459507;26;20006;-72
2024/04/11 01:10:35;;;;;;;11.93;1.77;;;;;;;-146.27;56.57;46667.16;5452306;26;20014;-72
2024/04/11 01:13:02;;;;;;;5.55;1.90;;;;;;;-146.27;56.56;46643.25;5464282;26;20004;-72
2024/04/11 01:15:27;;;;;;;7.90;1.70;;;;;;;-146.27;57.34;46643.25;5476172;26;19990;-70
2024/04/11 01:17:53;;;;;;;6.25;1.65;;;;;;;-146.27;57.01;46623.34;5461946;26;20690;-72
2024/04/11 01:20:18;;;;;;;8.68;1.50;;;;;;;-146.27;56.88;46645.25;5469018;26;19994;-72
2024/04/11 01:22:44;;;;;;;15.43;2.40;;;;;;;-146.27;58.03;46623.34;5472718;26;19998;-71
2024/04/11 01:25:09;;;;;;;5.72;2.03;;;;;;;-146.27;58.50;46607.44;5473312;26;20533;-71
2024/04/11 01:27:36;;;;;;;5.65;1.48;;;;;;;-146.27;58.39;46589.50;5469567;26;19998;-71
2024/04/11 01:30:04;;;;;;;3.50;1.20;;;;;;;-146.27;59.92;46597.47;5484767;26;19999;-71
2024/04/11 01:32:30;;;;;;;4.50;1.60;;;;;;;-146.27;60.63;46571.59;5462939;26;20002;-72
2024/04/11 01:34:56;;;;;;;3.40;1.30;;;;;;;-146.27;60.31;46583.53;5463373;26;20090;-71
2024/04/11 01:37:25;;;;;;;3.22;1.30;;;;;;;-146.27;59.95;46559.66;5474913;26;20009;-72
2024/04/11 01:39:51;;;;;;;7.15;1.77;;;;;;;-146.27;60.54;46563.63;5459014;26;20474;-71
2024/04/11 01:42:18;;;;;;;7.70;1.45;;;;;;;-146.27;62.34;46587.53;5459710;26;20072;-71
2024/04/11 01:44:43;;;;;;;6.43;1.73;;;;;;;-146.27;62.02;46527.78;5464373;26;19995;-72
2024/04/11 01:47:08;;;;;;;6.75;1.50;;;;;;;-146.27;62.43;46511.88;5457389;26;20009;-69
2024/04/11 01:49:34;;;;;;;7.65;1.92;;;;;;;-146.27;63.13;46539.75;5463396;26;20033;-71
2024/04/11 01:51:59;;;;;;;6.43;1.45;;;;;;;-146.27;63.60;46476.03;5450909;26;20376;-72
2024/04/11 01:54:24;;;;;;;10.07;1.48;;;;;;;-146.27;63.19;46472.06;5465779;26;20006;-70
2024/04/11 01:56:50;;;;;;;5.43;1.20;;;;;;;-146.27;63.44;46444.19;5463106;26;20062;-70
2024/04/11 01:59:16;;;;;;;6.47;1.38;;;;;;;-146.27;62.62;46408.34;5468471;26;19994;-72
2024/04/11 02:01:42;;;;;;;6.63;1.42;;;;;;;-146.27;63.44;46442.19;5466718;26;19998;-72
2024/04/11 02:04:09;;;;;;;7.35;1.65;;;;;;;-146.27;65.26;46418.31;5474068;26;19994;-73
2024/04/11 02:06:38;;;;;;;7.13;1.17;;;;;;;-146.27;64.20;46410.34;5465973;26;20454;-70
2024/04/11 02:09:11;;;;;;;7.85;1.75;;;;;;;-146.27;63.87;46372.53;5449533;26;20009;-71
2024/04/11 02:11:42;;;;;;;4.97;2.00;;;;;;;-146.27;65.67;46372.53;5465245;26;20005;-72
2024/04/11 02:14:08;;;;;;;8.50;1.88;;;;;;;-146.27;65.84;46360.56;5457125;26;20018;-72
2024/04/11 02:16:36;;;;;;;9.45;1.70;;;;;;;-146.27;65.15;46302.84;5461899;26;20319;-73
2024/04/11 02:19:06;;;;;;;6.90;1.55;;;;;;;-146.27;66.84;46310.81;5456883;26;20010;-66
2024/04/11 02:21:38;;;;;;;5.85;1.42;;;;;;;-146.27;65.22;46249.09;5477233;26;20005;-68
2024/04/11 02:24:06;;;;;;;7.18;1.60;;;;;;;-146.27;65.97;46284.94;5452977;26;20073;-66
2024/04/11 02:26:32;;;;;;;6.35;1.58;;;;;;;-146.27;67.15;46241.13;5458741;26;19995;-67
2024/04/11 02:28:58;;;;;;;13.98;2.47;;;;;;;-146.27;68.00;46197.34;5471243;26;19991;-66
2024/04/11 02:31:23;;;;;;;10.05;1.45;;;;;;;-146.27;67.61;46139.63;5470980;26;19993;-69
2024/04/11 02:33:48;;;;;;;6.10;1.73;;;;;;;-146.27;68.02;46089.84;5466278;26;20030;-66
2024/04/11 02:36:14;;;;;;;5.70;2.00;;;;;;;-146.27;67.92;46058.00;5456380;26;20003;-67
2024/04/11 02:38:39;;;;;;;11.50;2.38;;;;;;;-146.27;69.10;45986.34;5456049;26;19994;-67
2024/04/11 02:41:06;;;;;;;5.70;2.10;;;;;;;-146.27;69.63;45998.28;5487325;26;19995;-66
2024/04/11 02:43:34;;;;;;;7.05;2.13;;;;;;;-146.27;69.83;45898.75;5467221;26;20005;-66
2024/04/11 02:45:59;;;;;;;9.32;1.75;;;;;;;-146.27;69.41;45831.09;5458454;26;20010;-67
2024/04/11 02:48:26;;;;;;;12.05;1.88;;;;;;;-146.27;70.03;45783.31;5472679;26;20481;-66
2024/04/11 02:50:52;;;;;;;6.95;1.95;;;;;;;-146.27;69.64;45767.38;5452220;26;20428;-67
2024/04/11 02:53:18;;;;;;;6.85;1.77;;;;;;;-146.27;69.45;45743.50;5458554;26;20311;-69
2024/04/11 02:55:44;;;;;;;12.38;1.52;;;;;;;-146.27;69.88;45731.56;5453277;26;19999;-68
2024/04/11 02:58:10;;;;;;;6.15;1.77;;;;;;;-146.27;69.59;45675.81;5463666;26;20009;-67
2024/04/11 03:00:36;;;;;;;6.65;1.80;;;;;;;-146.27;70.48;45691.75;5472984;26;19999;-69
2024/04/11 03:03:02;;;;;;;8.18;1.48;;;;;;;-146.27;72.48;45564.38;5464954;26;19998;-67
2024/04/11 03:05:27;;;;;;;7.80;1.75;;;;;;;-146.27;71.69;45502.66;5471170;26;20016;-66
2024/04/11 03:07:53;;;;;;;10.30;1.92;;;;;;;-146.27;72.88;45375.28;5466473;26;20048;-66
2024/04/11 03:10:18;;;;;;;5.93;1.98;;;;;;;-146.27;72.93;45313.59;5455110;26;20007;-69
2024/04/11 03:12:43;;;;;;;8.45;1.70;;;;;;;-146.27;72.41;45160.34;5465891;26;20672;-65
2024/04/11 03:15:09;;;;;;;5.68;1.42;;;;;;;-146.27;73.16;45122.53;5476695;26;20521;-67
2024/04/11 03:17:36;;;;;;;6.35;2.33;;;;;;;-146.27;74.29;44997.16;5471225;26;19999;-67
2024/04/11 03:20:01;;;;;;;7.13;1.83;;;;;;;-146.27;74.20;44883.75;5475708;26;20090;-66
2024/04/11 03:22:26;;;;;;;13.95;2.65;;;;;;;-146.27;75.54;44666.84;5464261;26;19998;-68
2024/04/11 03:24:52;;;;;;;4.97;1.80;;;;;;;-146.27;76.79;44219.16;5468417;26;20011;-68
2024/04/11 03:27:17;;;;;;;7.80;1.90;;;;;;;-146.27;76.44;44052.03;5450741;26;19998;-66
2024/04/11 03:29:45;;;;;;;8.70;2.25;;;;;;;-146.27;76.88;44061.97;5479365;26;19994;-67
2024/04/11 03:32:11;;;;;;;7.65;2.25;;;;;;;-146.27;75.44;43992.34;5461966;26;19999;-67
2024/04/11 03:34:37;;;;;;;5.43;2.55;;;;;;;-146.27;75.35;44032.13;5451811;26;19995;-68
2024/04/11 03:37:04;;;;;;;5.10;2.10;;;;;;;-146.27;76.06;44038.09;5449477;26;19999;-67
2024/04/11 03:39:30;;;;;;;10.75;2.35;;;;;;;-146.27;76.88;43944.59;5455073;26;20142;-67
2024/04/11 03:41:56;;;;;;;5.78;2.25;;;;;;;-146.27;76.82;43954.53;5464898;26;20451;-67
2024/04/11 03:44:21;;;;;;;9.40;2.38;;;;;;;-146.27;76.76;43872.97;5467976;26;20084;-68
2024/04/11 03:46:47;;;;;;;6.10;2.80;;;;;;;-146.27;77.74;43815.28;5469457;26;19998;-67
2024/04/11 03:49:13;;;;;;;6.72;2.38;;;;;;;-146.27;77.55;43801.34;5450192;26;19999;-66
2024/04/11 03:51:41;;;;;;;9.20;2.35;;;;;;;-146.27;77.30;43733.72;5448141;26;19995;-66
2024/04/11 03:54:07;;;;;;;8.20;2.80;;;;;;;-146.27;77.47;43717.78;5464569;26;20339;-68
2024/04/11 03:56:34;;;;;;;8.20;2.35;;;;;;;-146.27;77.48;43753.59;5465522;26;20037;-66
2024/04/11 03:58:59;;;;;;;12.02;2.30;;;;;;;-146.27;76.88;43745.66;5466522;26;20042;-67
2024/04/11 04:01:26;;;;;;;7.70;2.95;;;;;;;-146.27;76.93;43741.66;5462915;26;19999;-68
2024/04/11 04:03:56;;;;;;;9.40;3.05;;;;;;;-146.27;77.78;43678.00;5451291;26;20009;-66
2024/04/11 04:06:22;;;;;;;5.55;2.13;;;;;;;-146.27;78.24;43691.94;5466586;26;20043;-67
2024/04/11 04:08:49;;;;;;;7.43;2.83;;;;;;;-146.27;78.63;43666.06;5466014;26;19998;-67
2024/04/11 04:11:17;;;;;;;9.32;2.65;;;;;;;-146.27;78.11;43594.47;5466409;26;20001;-66
2024/04/11 04:13:43;;;;;;;7.45;3.42;;;;;;;-146.27;78.84;43598.44;5453673;26;20451;-67
2024/04/11 04:16:14;;;;;;;7.15;2.58;;;;;;;-146.27;78.62;43538.75;5478247;26;19990;-67
2024/04/11 04:18:47;;;;;;;7.32;2.58;;;;;;;-146.27;79.27;43518.88;5481013;26;20334;-68
2024/04/11 04:21:13;;;;;;;11.30;3.03;;;;;;;-146.27;78.94;43504.94;5459240;26;20005;-67
2024/04/11 04:23:42;;;;;;;6.55;2.63;;;;;;;-146.27;79.74;43483.06;5459623;26;19998;-66
2024/04/11 04:26:08;;;;;;;5.32;2.63;;;;;;;-146.27;78.95;43407.47;5481530;26;20086;-67
2024/04/11 04:28:35;;;;;;;8.68;2.45;;;;;;;-146.27;79.16;43407.47;5473565;26;20319;-67
2024/04/11 04:31:25;;;;;;;11.57;2.60;;;;;;;-146.27;79.99;43367.69;5477292;26;20010;-67
2024/04/11 04:33:53;;;;;;;8.07;2.92;;;;;;;-146.27;79.87;43319.94;5463096;26;19991;-68
2024/04/11 04:36:27;;;;;;;8.65;2.85;;;;;;;-146.27;79.03;43333.88;5462622;26;20324;-67
2024/04/11 04:38:56;;;;;;;6.60;3.25;;;;;;;-146.27;80.54;43311.97;5472378;26;20027;-67
2024/04/11 04:41:27;;;;;;;6.50;3.50;;;;;;;-146.27;80.38;43232.41;5474851;26;20411;-68
2024/04/11 04:43:54;;;;;;;10.32;3.78;;;;;;;-146.27;81.36;43214.50;5467488;26;19998;-66
2024/04/11 04:46:30;;;;;;;9.52;3.42;;;;;;;-146.27;81.37;43097.16;5458389;26;19995;-68
2024/04/11 04:48:57;;;;;;;12.68;3.35;;;;;;;-146.27;81.73;43083.22;5476020;26;20003;-67
2024/04/11 04:51:24;;;;;;;6.72;3.20;;;;;;;-146.27;82.79;42934.06;5485023;26;20023;-68
2024/04/11 04:53:52;;;;;;;9.98;3.50;;;;;;;-146.27;82.33;42858.47;5494926;26;20437;-68
2024/04/11 04:56:19;;;;;;;10.23;3.90;;;;;;;-146.27;82.57;42914.16;5453588;26;20036;-66
2024/04/11 04:58:46;;;;;;;8.93;4.05;;;;;;;-146.27;83.08;42886.31;5493135;26;19998;-65
2024/04/11 05:01:12;;;;;;;7.85;4.40;;;;;;;-146.27;84.64;42774.94;5469209;25;20013;-67
2024/04/11 05:03:41;;;;;;;6.35;4.10;;;;;;;-146.27;83.54;42667.53;5472056;26;20031;-67
2024/04/11 05:06:11;;;;;;;15.23;4.60;;;;;;;-146.27;83.67;42701.34;5456892;26;20014;-68
2024/04/11 05:08:37;;;;;;;8.32;3.92;;;;;;;-146.27;83.06;42653.63;5464855;26;19994;-65
2024/04/11 05:11:12;;;;;;;8.25;4.40;;;;;;;-146.27;83.15;42663.56;5476494;26;20025;-69
2024/04/11 05:13:42;;;;;;;8.48;5.00;;;;;;;-146.27;84.52;42643.69;5463692;26;20006;-67
2024/04/11 05:16:09;;;;;;;10.25;5.22;;;;;;;-146.27;84.56;42548.22;5460084;26;20009;-70
2024/04/11 05:18:37;;;;;;;8.10;4.90;;;;;;;-146.27;83.70;42552.19;5484276;26;20012;-68
2024/04/11 05:21:07;;;;;;;11.00;5.30;;;;;;;-146.27;84.21;42534.28;5473088;26;20003;-67
2024/04/11 05:23:38;;;;;;;8.90;5.32;;;;;;;-146.27;83.88;42504.47;5472874;26;20031;-67
2024/04/11 05:26:07;;;;;;;7.90;5.43;;;;;;;-146.27;84.80;42514.41;5462562;26;20074;-67
2024/04/11 05:28:36;;;;;;;9.75;5.18;;;;;;;-146.27;84.93;42428.88;5476650;26;20047;-67
2024/04/11 05:31:05;;;;;;;7.45;5.20;;;;;;;-146.27;85.91;42436.84;5458442;26;19995;-66
2024/04/11 05:33:40;;;;;;;9.55;6.10;;;;;;;-146.27;87.26;42341.38;5462911;26;19998;-66
2024/04/11 05:36:06;;;;;;;12.93;6.18;;;;;;;-146.27;87.35;42166.38;5465380;26;19991;-67
2024/04/11 05:38:37;;;;;;;9.27;5.85;;;;;;;-146.27;87.24;42098.78;5483153;26;20057;-69
2024/04/11 05:41:09;;;;;;;8.75;5.53;;;;;;;-146.27;88.24;42106.72;5456131;26;20003;-67
2024/04/11 05:43:42;;;;;;;8.85;5.82;;;;;;;-146.27;87.86;42051.06;5485102;26;19995;-68
2024/04/11 05:46:13;;;;;;;15.48;6.88;;;;;;;-146.27;89.06;42015.25;5479488;26;19998;-69
2024/04/11 05:48:42;;;;;;;11.15;6.20;;;;;;;-146.27;88.51;41921.78;5452040;26;20034;-73
2024/04/11 05:51:08;;;;;;;8.77;6.20;;;;;;;-146.27;87.40;41939.69;5469049;26;19990;-73
2024/04/11 05:53:36;;;;;;;12.93;6.40;;;;;;;-146.27;88.20;41959.56;5482433;26;20006;-73
2024/04/11 05:56:06;;;;;;;11.43;6.90;;;;;;;-146.27;88.59;41897.94;5462535;26;20002;-73
2024/04/11 05:58:31;;;;;;;11.18;6.78;;;;;;;-146.27;88.54;41939.69;5461046;26;20382;-73
2024/04/11 06:01:01;;;;;;;12.45;6.40;;;;;;;-146.27;88.00;41931.75;5450086;26;19999;-74
2024/04/11 06:03:29;;;;;;;16.02;6.97;;;;;;;-146.27;89.26;41963.56;5449494;26;20507;-74
2024/04/11 06:05:55;;;;;;;8.50;6.40;;;;;;;-146.27;89.02;42003.31;5448639;26;20066;-71
2024/04/11 06:08:23;;;;;;;10.35;6.03;;;;;;;-146.27;89.19;42019.22;5463426;26;20006;-74
2024/04/11 06:10:49;;;;;;;11.13;6.30;;;;;;;-146.27;87.91;42051.06;5467468;26;20342;-72
2024/04/11 06:13:16;;;;;;;12.63;6.32;;;;;;;-146.27;88.08;42116.66;5465005;26;20050;-73
2024/04/11 06:15:43;;;;;;;10.20;6.22;;;;;;;-146.27;88.64;42245.94;5462062;26;20003;-73
2024/04/11 06:18:09;;;;;;;14.18;6.72;;;;;;;-146.27;87.71;42196.22;5455669;26;20600;-72
2024/04/11 06:20:38;;;;;;;8.82;5.90;;;;;;;-146.27;88.28;42249.91;5475054;26;19998;-73
2024/04/11 06:23:08;;;;;;;8.05;5.90;;;;;;;-146.27;87.41;42220.06;5453861;26;20044;-73
2024/04/11 06:25:36;;;;;;;11.52;5.78;;;;;;;-146.27;87.12;42230.03;5459265;26;19998;-73
2024/04/11 06:28:02;;;;;;;10.38;5.85;;;;;;;-146.27;88.91;42315.53;5466657;26;19999;-73
2024/04/11 06:30:27;;;;;;;6.93;5.38;;;;;;;-146.27;88.12;42228.03;5461334;26;20004;-74
2024/04/11 06:32:54;;;;;;;11.82;6.28;;;;;;;-146.27;87.14;42259.84;5464726;26;20354;-71
2024/04/11 06:35:19;;;;;;;7.22;5.85;;;;;;;-146.27;88.29;42295.66;5478438;26;20017;-74
2024/04/11 06:37:45;;;;;;;10.70;6.05;;;;;;;-146.27;88.51;42309.56;5450082;26;19999;-72
2024/04/11 06:40:13;;;;;;;8.80;6.03;;;;;;;-146.27;88.10;42273.78;5462548;26;20049;-73
2024/04/11 06:42:46;;;;;;;9.38;5.45;;;;;;;-146.27;87.79;42313.53;5455503;26;20428;-72
2024/04/11 06:45:23;;;;;;;7.55;4.85;;;;;;;-146.27;87.80;42261.84;5481850;26;19990;-70
2024/04/11 06:47:52;;;;;;;9.85;7.65;;;;;;;-146.27;88.65;42373.22;5479085;26;20006;-71
2024/04/11 06:50:21;;;;;;;15.35;6.63;;;;;;;-146.27;89.36;42293.66;5447364;26;20010;-72
2024/04/11 06:52:47;;;;;;;9.32;5.85;;;;;;;-146.27;88.59;42285.72;5447302;26;20006;-72
2024/04/11 06:55:14;;;;;;;10.65;6.30;;;;;;;-146.27;87.73;42251.91;5446473;26;20031;-73
2024/04/11 06:57:44;;;;;;;9.85;5.78;;;;;;;-146.27;87.89;42277.75;5447506;26;20466;-65
2024/04/11 07:00:58;;;;;;;11.43;6.50;;;;;;;-146.27;88.77;42267.81;5449167;26;19995;-68
2024/04/11 07:02:56;;;;;;;8.82;6.20;;;;;;;-146.27;88.11;42210.13;5454130;26;20009;-68
2024/04/11 07:05:22;;;;;;;9.98;6.32;;;;;;;-146.27;87.81;42261.84;5484815;26;19998;-67
2024/04/11 07:07:54;;;;;;;11.70;6.80;;;;;;;-146.27;88.06;42295.66;5484580;26;20009;-67
2024/04/11 07:10:32;;;;;;;18.25;7.80;;;;;;;-146.27;88.83;42303.59;5481594;26;19998;-68
2024/04/11 07:12:59;;;;;;;13.18;7.40;;;;;;;-146.27;88.17;42305.59;5484988;26;21000;-68
2024/04/11 07:15:29;;;;;;;16.95;8.00;;;;;;;-146.27;88.47;42357.28;5484538;26;20032;-68
2024/04/11 07:17:57;;;;;;;20.15;8.20;;;;;;;-146.27;89.86;42339.41;5470350;26;19994;-68
2024/04/11 07:20:35;;;;;;;16.70;8.60;;;;;;;-146.27;89.11;42269.78;5465178;26;19999;-69
2024/04/11 07:23:04;;;;;;;12.10;7.75;;;;;;;-146.27;88.90;42285.72;5461806;26;19991;-68
2024/04/11 07:25:32;;;;;;;13.30;8.85;;;;;;;-146.27;89.06;42277.75;5485217;26;19990;-68
2024/04/11 07:28:00;;;;;;;17.23;8.85;;;;;;;-146.27;89.00;42325.47;5483189;26;20006;-70
2024/04/11 07:30:27;;;;;;;14.77;8.65;;;;;;;-146.27;89.27;42275.75;5455982;26;20009;-69
2024/04/11 07:32:52;;;;;;;13.05;8.80;;;;;;;-146.27;90.32;42317.53;5467359;26;20018;-69
2024/04/11 07:35:18;;;;;;;16.67;8.68;;;;;;;-146.27;89.59;42216.09;5451551;26;19999;-69
2024/04/11 07:37:44;;;;;;;16.92;10.15;;;;;;;-146.27;89.81;42251.91;5452157;26;20076;-68
2024/04/11 07:40:27;;;;;;;17.08;9.27;;;;;;;-146.27;90.15;42218.09;5451931;26;19995;-67
2024/04/11 07:43:05;;;;;;;17.42;10.05;;;;;;;-146.27;89.27;42253.88;5466091;26;19990;-69
2024/04/11 07:45:35;;;;;;;16.67;9.90;;;;;;;-146.27;89.16;42214.13;5487799;26;20348;-70
2024/04/11 07:48:04;;;;;;;16.10;9.82;;;;;;;-146.27;89.11;42261.84;5487726;26;20013;-67
2024/04/11 07:50:30;;;;;;;19.45;9.18;;;;;;;-146.27;88.97;42194.22;5487568;26;19998;-69
2024/04/11 07:52:57;;;;;;;19.52;9.65;;;;;;;-146.27;89.07;42281.72;5488045;26;20014;-68
2024/04/11 07:55:23;;;;;;;24.00;11.25;;;;;;;-146.27;89.01;42259.84;5487433;26;19998;-68
2024/04/11 07:57:48;;;;;;;15.60;9.63;;;;;;;-146.27;88.92;42226.03;5469542;26;19991;-68
2024/04/11 08:00:20;;;;;;;22.40;9.77;;;;;;;-146.27;88.81;42239.97;5451055;26;20003;-70
2024/04/11 08:02:48;;;;;;;19.70;10.27;;;;;;;-146.27;89.33;42237.97;5465571;26;20002;-69
2024/04/11 08:05:15;;;;;;;15.38;9.23;;;;;;;-146.27;89.61;42273.78;5487449;26;19998;-68
2024/04/11 08:07:42;;;;;;;20.10;9.00;;;;;;;-146.27;88.59;42226.03;5485332;26;20008;-69
2024/04/11 08:10:08;;;;;;;15.52;9.05;;;;;;;-146.27;88.67;42267.81;5487269;26;20360;-69
2024/04/11 08:12:34;;;;;;;17.50;9.15;;;;;;;-146.27;88.76;42245.94;5487682;26;20446;-69
2024/04/11 08:14:59;;;;;;;19.75;9.30;;;;;;;-146.27;90.20;42321.50;5487443;26;20009;-71
2024/04/11 08:17:26;;;;;;;17.05;9.05;;;;;;;-146.27;90.33;42305.59;5483971;26;20007;-68
2024/04/11 08:19:51;;;;;;;19.55;10.10;;;;;;;-146.27;89.31;42265.81;5487773;26;20026;-68
2024/04/11 08:22:16;;;;;;;18.77;10.35;;;;;;;-146.27;90.32;42375.19;5487380;26;20009;-69
2024/04/11 08:24:43;;;;;;;18.00;9.13;;;;;;;-146.27;89.37;42253.88;5487541;26;19991;-69
2024/04/11 08:27:08;;;;;;;15.57;9.48;;;;;;;-146.27;88.58;42277.75;5485768;26;20446;-69
2024/04/11 08:29:34;;;;;;;19.42;9.85;;;;;;;-146.27;89.23;42291.66;5487136;26;19990;-68
2024/04/11 08:32:00;;;;;;;18.10;10.43;;;;;;;-146.27;88.56;42259.84;5482627;26;20022;-69
2024/04/11 08:34:25;;;;;;;16.60;9.52;;;;;;;-146.27;87.81;42202.19;5451162;26;20600;-68
2024/04/11 08:36:52;;;;;;;16.63;8.20;;;;;;;-146.27;87.25;42186.28;5450821;26;20003;-68
2024/04/11 08:39:18;;;;;;;13.52;8.00;;;;;;;-146.27;87.01;42214.13;5449845;26;20013;-69
2024/04/11 08:41:43;;;;;;;11.90;6.88;;;;;;;-146.27;87.38;42210.13;5450904;26;20003;-69
2024/04/11 08:44:11;;;;;;;10.38;6.50;;;;;;;-146.27;87.93;42245.94;5450703;26;20655;-69
2024/04/11 08:46:36;;;;;;;12.85;6.85;;;;;;;-146.27;87.66;42214.13;5450151;26;20026;-69
2024/04/11 08:49:03;;;;;;;15.50;6.70;;;;;;;-146.27;87.97;42198.19;5452559;26;20006;-70
2024/04/11 08:51:33;;;;;;;12.20;6.38;;;;;;;-146.27;87.75;42180.31;5450006;26;20046;-69
2024/04/11 08:54:02;;;;;;;12.10;5.63;;;;;;;-146.27;88.01;42237.97;5450541;26;20002;-69
2024/04/11 08:56:28;;;;;;;18.50;6.30;;;;;;;-146.27;88.52;42216.09;5456768;26;19998;-68
2024/04/11 08:58:54;;;;;;;14.60;6.88;;;;;;;-146.27;88.69;42303.59;5486658;26;20009;-67
2024/04/11 09:01:20;;;;;;;15.73;6.70;;;;;;;-146.27;88.56;42253.88;5486493;26;20026;-70
2024/04/11 09:03:48;;;;;;;13.15;6.85;;;;;;;-146.27;89.62;42329.47;5486982;26;20373;-69
2024/04/11 09:06:14;;;;;;;13.90;6.70;;;;;;;-146.27;89.66;42309.56;5463305;26;20342;-69
2024/04/11 09:08:40;;;;;;;16.58;6.72;;;;;;;-146.27;89.21;42218.09;5486486;26;19998;-68
2024/04/11 09:11:06;;;;;;;13.80;6.80;;;;;;;-146.27;88.86;42198.19;5476701;26;20005;-69
2024/04/11 09:13:32;;;;;;;14.48;7.53;;;;;;;-146.27;89.21;42160.41;5487086;26;20030;-67
2024/04/11 09:16:04;;;;;;;13.85;7.55;;;;;;;-146.27;89.40;42192.25;5469882;26;20312;-67
2024/04/11 09:18:30;;;;;;;14.32;7.65;;;;;;;-146.27;89.69;42202.19;5470184;26;20077;-69
2024/04/11 09:21:04;;;;;;;16.73;7.85;;;;;;;-146.27;90.31;42253.88;5452021;26;20011;-69
2024/04/11 09:23:34;;;;;;;19.33;7.20;;;;;;;-146.27;89.78;42200.19;5452708;26;20003;-71
2024/04/11 09:26:01;;;;;;;16.65;7.78;;;;;;;-146.27;90.46;42271.78;5450179;26;19995;-68
2024/04/11 09:28:28;;;;;;;15.55;6.43;;;;;;;-146.27;89.70;42224.06;5456629;26;20006;-69
2024/04/11 09:30:54;;;;;;;17.33;7.32;;;;;;;-146.27;89.91;42192.25;5477973;26;20083;-68
2024/04/11 09:33:22;;;;;;;14.60;9.32;;;;;;;-146.27;89.35;42128.59;5482343;26;19990;-69
2024/04/11 09:35:53;;;;;;;15.73;10.00;;;;;;;-146.27;89.55;42174.34;5450176;26;19995;-68
2024/04/11 09:38:21;;;;;;;15.27;9.18;;;;;;;-146.27;90.15;42216.09;5450009;26;20050;-69
2024/04/11 09:40:53;;;;;;;21.98;10.00;;;;;;;-146.27;89.55;42158.44;5449893;26;20006;-68
2024/04/11 09:43:27;;;;;;;22.00;9.95;;;;;;;-146.27;89.51;42134.56;5449616;26;20006;-68
2024/04/11 09:45:56;;;;;;;14.45;8.15;;;;;;;-146.27;89.60;42174.34;5454112;26;20009;-68
2024/04/11 09:48:24;;;;;;;14.73;8.13;;;;;;;-146.27;89.75;42158.44;5450175;26;20443;-68
2024/04/11 09:50:51;;;;;;;18.23;8.15;;;;;;;-146.27;89.57;42170.38;5448253;26;19990;-69
2024/04/11 09:53:26;;;;;;;16.05;8.25;;;;;;;-146.27;89.38;42138.53;5449218;26;19991;-68
2024/04/11 09:56:04;;;;;;;20.38;9.18;;;;;;;-146.27;89.42;42142.53;5478803;26;19990;-68
2024/04/11 09:58:33;;;;;;;13.65;8.70;;;;;;;-146.27;89.15;42206.16;5486363;26;19999;-69
2024/04/11 10:01:04;;;;;;;15.48;8.75;;;;;;;-146.27;89.33;42194.22;5483421;26;19998;-69
2024/04/11 10:03:31;;;;;;;16.58;7.47;;;;;;;-146.27;89.34;42096.78;5486118;26;20326;-69
2024/04/11 10:06:01;;;;;;;16.27;6.95;;;;;;;-146.27;88.83;42186.28;5486095;26;20373;-69
2024/04/11 10:08:33;;;;;;;14.77;6.38;;;;;;;-146.27;89.29;42241.97;5485908;26;20013;-68
2024/04/11 10:11:03;;;;;;;11.07;5.85;;;;;;;-146.27;89.61;42206.16;5483139;26;20547;-68
2024/04/11 10:13:34;;;;;;;17.80;6.32;;;;;;;-146.27;88.96;42130.59;5463671;26;19994;-68
2024/04/11 10:16:30;;;;;;;7.82;5.75;;;;;;;-146.27;89.03;42166.38;5449215;26;19990;-69
2024/04/11 10:19:04;;;;;;;10.75;5.20;;;;;;;-146.27;88.92;42122.63;5449017;26;19999;-68
2024/04/11 10:21:34;;;;;;;12.50;5.75;;;;;;;-146.27;87.98;42094.81;5456612;26;20067;-67
2024/04/11 10:24:14;;;;;;;17.50;6.50;;;;;;;-146.27;88.21;42162.41;5483552;26;20509;-68
2024/04/11 10:26:42;;;;;;;13.32;5.15;;;;;;;-146.27;87.48;42029.19;5482784;26;20070;-68
2024/04/11 10:29:20;;;;;;;16.95;5.50;;;;;;;-146.27;87.04;42059.00;5481482;26;19998;-68
2024/04/11 10:31:56;;;;;;;10.63;5.07;;;;;;;-146.27;86.48;42140.53;5473337;26;19999;-69
2024/04/11 10:34:25;;;;;;;13.48;6.35;;;;;;;-146.27;86.16;42178.31;5448905;26;19999;-68
2024/04/11 10:36:54;;;;;;;20.85;5.32;;;;;;;-146.27;85.13;42126.63;5448843;26;19994;-68
2024/04/11 10:39:21;;;;;;;14.35;5.65;;;;;;;-146.27;84.99;42142.53;5446777;26;20010;-69
2024/04/11 10:41:51;;;;;;;14.70;5.40;;;;;;;-146.27;85.72;42138.53;5449001;26;20023;-69
2024/04/11 10:44:18;;;;;;;16.30;5.72;;;;;;;-146.27;84.86;42146.50;5448824;26;19998;-69
2024/04/11 10:46:44;;;;;;;10.52;5.13;;;;;;;-146.27;84.05;42176.34;5448588;26;20006;-67
2024/04/11 10:49:15;;;;;;;14.90;4.53;;;;;;;-146.27;83.19;42078.88;5452782;26;20327;-70
2024/04/11 10:51:42;;;;;;;18.05;5.55;;;;;;;-146.27;82.64;42144.50;5459459;26;20455;-67
2024/04/11 10:54:10;;;;;;;11.23;5.18;;;;;;;-146.27;81.47;42082.88;5448713;26;20469;-69
2024/04/11 10:56:41;;;;;;;10.00;4.70;;;;;;;-146.27;80.73;42122.63;5449237;26;20071;-68
2024/04/11 10:59:22;;;;;;;10.73;4.15;;;;;;;-146.27;80.35;42230.03;5478158;26;19994;-69
2024/04/11 11:02:00;;;;;;;13.05;4.35;;;;;;;-146.27;79.19;42208.16;5484988;26;19998;-69
2024/04/11 11:04:26;;;;;;;8.55;4.03;;;;;;;-146.27;78.28;42253.88;5488353;26;19998;-68
2024/04/11 11:06:54;;;;;;;9.38;3.70;;;;;;;-146.27;77.23;42273.78;5480125;26;20002;-68
2024/04/11 11:09:22;;;;;;;13.85;4.30;;;;;;;-146.27;77.75;42393.09;5449755;26;20338;-68
2024/04/11 11:11:49;;;;;;;8.95;4.95;;;;;;;-146.27;76.77;42424.91;5459091;26;20010;-68
2024/04/11 11:14:17;;;;;;;12.18;5.13;;;;;;;-146.27;77.09;42504.47;5474037;26;20438;-68
2024/04/11 11:16:44;;;;;;;13.52;5.35;;;;;;;-146.27;78.19;42478.59;5463348;26;19998;-68